sensor_id;sensor_type;location;lat;lon;timestamp;temperature;humidity
6863;DHT22;3470;48.738;9.616;2023-07-29T18:28:43;17.20;99.90
6863;DHT22;3470;48.738;9.616;2023-07-29T18:31:09;17.00;99.90
6863;DHT22;3470;48.738;9.616;2023-07-29T18:33:35;17.10;99.90
6863;DHT22;3470;48.738;9.616;2023-07-29T18:36:03;17.20;99.90
6863;DHT22;3470;48.738;9.616;2023-07-29T18:38:29;17.30;99.90
6863;DHT22;3470;48.738;9.616;2023-07-29T18:40:54;17.30;99.90
6863;DHT22;3470;48.738;9.616;2023-07-29T18:43:20;17.40;99.90
6863;DHT22;3470;48.738;9.616;2023-07-29T18:45:46;17.50;99.90
6863;DHT22;3470;48.738;9.616;2023-07-29T18:48:11;17.60;99.90
6863;DHT22;3470;48.738;9.616;2023-07-29T18:50:37;17.60;99.90
6863;DHT22;3470;48.738;9.616;2023-07-29T18:53:02;17.70;99.90
6863;DHT22;3470;48.738;9.616;2023-07-29T18:55:28;17.70;99.90
6863;DHT22;3470;48.738;9.616;2023-07-29T18:57:57;17.90;99.90
6863;DHT22;3470;48.738;9.616;2023-07-29T19:00:23;17.90;99.90
6863;DHT22;3470;48.738;9.616;2023-07-29T19:02:48;18.00;99.90
6863;DHT22;3470;48.738;9.616;2023-07-29T19:05:14;18.00;99.90
6863;DHT22;3470;48.738;9.616;2023-07-29T19:07:40;18.00;99.90
6863;DHT22;3470;48.738;9.616;2023-07-29T19:10:06;18.10;99.90
6863;DHT22;3470;48.738;9.616;2023-07-29T19:12:32;18.10;99.90
6863;DHT22;3470;48.738;9.616;2023-07-29T19:14:59;18.10;99.90
6863;DHT22;3470;48.738;9.616;2023-07-29T19:17:25;18.10;99.90
6863;DHT22;3470;48.738;9.616;2023-07-29T19:19:50;18.10;99.90
6863;DHT22;3470;48.738;9.616;2023-07-29T19:22:16;18.10;99.90
6863;DHT22;3470;48.738;9.616;2023-07-29T19:24:42;18.10;99.90
6863;DHT22;3470;48.738;9.616;2023-07-29T19:27:07;18.00;99.90
6863;DHT22;3470;48.738;9.616;2023-07-29T19:29:33;18.00;99.90
6863;DHT22;3470;48.738;9.616;2023-07-29T19:31:59;17.90;99.90
6863;DHT22;3470;48.738;9.616;2023-07-29T19:34:24;17.90;99.90
6863;DHT22;3470;48.738;9.616;2023-07-29T19:36:50;17.90;99.90
6863;DHT22;3470;48.738;9.616;2023-07-29T19:39:16;17.90;99.90
6863;DHT22;3470;48.738;9.616;2023-07-29T19:41:41;17.80;99.90
6863;DHT22;3470;48.738;9.616;2023-07-29T19:44:07;17.80;99.90
6863;DHT22;3470;48.738;9.616;2023-07-29T19:46:33;17.80;99.90
6863;DHT22;3470;48.738;9.616;2023-07-29T19:48:59;17.70;99.90
6863;DHT22;3470;48.738;9.616;2023-07-29T19:51:25;17.70;99.90
6863;DHT22;3470;48.738;9.616;2023-07-29T19:53:51;17.80;99.90
6863;DHT22;3470;48.738;9.616;2023-07-29T19:56:19;17.70;99.90
6863;DHT22;3470;48.738;9.616;2023-07-29T19:58:45;17.70;99.90
6863;DHT22;3470;48.738;9.616;2023-07-29T20:01:11;17.60;99.90
6863;DHT22;3470;48.738;9.616;2023-07-29T20:03:37;17.60;99.90
6863;DHT22;3470;48.738;9.616;2023-07-29T20:06:03;17.60;99.90
6863;DHT22;3470;48.738;9.616;2023-07-29T20:08:28;17.50;99.90
6863;DHT22;3470;48.738;9.616;2023-07-29T21:31:23;17.20;99.90
6863;DHT22;3470;48.738;9.616;2023-07-29T21:33:48;17.30;99.90
6863;DHT22;3470;48.738;9.616;2023-07-29T21:36:14;17.50;99.90
6863;DHT22;3470;48.738;9.616;2023-07-29T21:38:39;17.60;99.90
6863;DHT22;3470;48.738;9.616;2023-07-29T21:41:06;17.70;99.90
6863;DHT22;3470;48.738;9.616;2023-07-29T21:43:31;17.60;99.90
6863;DHT22;3470;48.738;9.616;2023-07-29T21:45:59;17.60;99.90
6863;DHT22;3470;48.738;9.616;2023-07-29T21:48:25;17.60;99.90
6863;DHT22;3470;48.738;9.616;2023-07-29T21:50:54;17.50;99.90
6863;DHT22;3470;48.738;9.616;2023-07-29T21:53:21;17.40;99.90
6863;DHT22;3470;48.738;9.616;2023-07-29T21:55:47;17.30;99.90
6863;DHT22;3470;48.738;9.616;2023-07-29T21:58:13;17.30;99.90
6863;DHT22;3470;48.738;9.616;2023-07-29T22:00:38;17.20;99.90
6863;DHT22;3470;48.738;9.616;2023-07-29T22:03:04;17.30;99.90
6863;DHT22;3470;48.738;9.616;2023-07-29T22:05:30;17.30;99.90
6863;DHT22;3470;48.738;9.616;2023-07-29T22:07:56;17.30;99.90
6863;DHT22;3470;48.738;9.616;2023-07-29T22:10:21;17.40;99.90
6863;DHT22;3470;48.738;9.616;2023-07-29T22:12:47;17.30;99.90
6863;DHT22;3470;48.738;9.616;2023-07-29T22:15:12;17.30;99.90
6863;DHT22;3470;48.738;9.616;2023-07-29T22:17:38;17.40;99.90
6863;DHT22;3470;48.738;9.616;2023-07-29T22:20:04;17.40;99.90
6863;DHT22;3470;48.738;9.616;2023-07-29T22:22:30;17.40;99.90
6863;DHT22;3470;48.738;9.616;2023-07-29T22:24:55;17.30;99.90
6863;DHT22;3470;48.738;9.616;2023-07-29T22:27:21;17.30;99.90
6863;DHT22;3470;48.738;9.616;2023-07-29T22:29:46;17.30;99.90
6863;DHT22;3470;48.738;9.616;2023-07-29T22:32:12;17.30;99.90
6863;DHT22;3470;48.738;9.616;2023-07-29T22:34:37;17.30;99.90
6863;DHT22;3470;48.738;9.616;2023-07-29T22:37:03;17.20;99.90
6863;DHT22;3470;48.738;9.616;2023-07-29T22:39:31;17.30;99.90
6863;DHT22;3470;48.738;9.616;2023-07-29T22:41:57;17.30;99.90
6863;DHT22;3470;48.738;9.616;2023-07-29T22:44:22;17.30;99.90
6863;DHT22;3470;48.738;9.616;2023-07-29T22:46:48;17.40;99.90
6863;DHT22;3470;48.738;9.616;2023-07-29T22:49:13;17.50;99.90
6863;DHT22;3470;48.738;9.616;2023-07-29T22:51:39;17.50;99.90
6863;DHT22;3470;48.738;9.616;2023-07-29T22:54:05;17.50;99.90
6863;DHT22;3470;48.738;9.616;2023-07-29T22:56:31;17.60;99.90
6863;DHT22;3470;48.738;9.616;2023-07-29T22:58:56;17.60;99.90
6863;DHT22;3470;48.738;9.616;2023-07-29T23:01:24;17.60;99.90
6863;DHT22;3470;48.738;9.616;2023-07-29T23:03:49;17.70;99.90
6863;DHT22;3470;48.738;9.616;2023-07-29T23:06:15;17.70;99.90
6863;DHT22;3470;48.738;9.616;2023-07-29T23:08:41;17.70;99.90
6863;DHT22;3470;48.738;9.616;2023-07-29T23:11:06;17.70;99.90
6863;DHT22;3470;48.738;9.616;2023-07-29T23:13:32;17.70;99.90
6863;DHT22;3470;48.738;9.616;2023-07-29T23:16:01;17.70;99.90
6863;DHT22;3470;48.738;9.616;2023-07-29T23:18:27;17.70;99.90
6863;DHT22;3470;48.738;9.616;2023-07-29T23:20:52;17.70;99.90
6863;DHT22;3470;48.738;9.616;2023-07-29T23:23:18;17.70;99.90
6863;DHT22;3470;48.738;9.616;2023-07-29T23:25:44;17.60;99.90
6863;DHT22;3470;48.738;9.616;2023-07-29T23:28:10;17.50;99.90
6863;DHT22;3470;48.738;9.616;2023-07-29T23:30:35;17.50;99.90
6863;DHT22;3470;48.738;9.616;2023-07-29T23:33:06;17.40;99.90
6863;DHT22;3470;48.738;9.616;2023-07-29T23:35:31;17.50;99.90
6863;DHT22;3470;48.738;9.616;2023-07-29T23:37:57;17.50;99.90
6863;DHT22;3470;48.738;9.616;2023-07-29T23:40:23;17.60;99.90
6863;DHT22;3470;48.738;9.616;2023-07-29T23:42:49;17.70;99.90
6863;DHT22;3470;48.738;9.616;2023-07-29T23:45:14;17.80;99.90
6863;DHT22;3470;48.738;9.616;2023-07-29T23:47:40;17.80;99.90
6863;DHT22;3470;48.738;9.616;2023-07-29T23:50:06;17.80;99.90
6863;DHT22;3470;48.738;9.616;2023-07-29T23:52:32;17.80;99.90
6863;DHT22;3470;48.738;9.616;2023-07-29T23:55:01;17.80;99.90
6863;DHT22;3470;48.738;9.616;2023-07-29T23:57:27;17.70;99.90
6863;DHT22;3470;48.738;9.616;2023-07-29T23:59:52;17.70;99.90
